Alaska Titan — WDE4789 — position and weather

sailwx.info

Track history (hours):
 
Tides and Currents Weather Stations Pressure Air Temp Water Temp Dewpoint Dewpoint Depression Visibility Wind Speed Wind Dir Waves Ship Positions

Alaska Titan

Owner: WESTERN TOWBOAT CO, Seattle, WA. More information available from US FCC via Universal Licensing System and Coast Guard Vessel Documentation Center.

Last reported at 2014-Dec-20 18:33 UTC. Time now 2014-Dec-22 02:06 UTC.
Position N 51°09' W 127°50'.

Length 40 m; draft 6 m.

Type: Tow > 200 m length. MMSI: 367357890.

Date/timePositionNaut miles runAvg speedWind from/ knotsBaromVisibWave heightAir tempDewpointWater temp
2014-Dec-20 18:33N 51°09' W 127°50'10 9.9
2014-Dec-20 17:33N 51°02' W 127°38'10 9.5
2014-Dec-20 16:33N 50°56' W 127°27'1010.0
2014-Dec-20 15:31N 50°49' W 127°14'1110.2
2014-Dec-20 14:24N 50°43' W 126°60'910.3
2014-Dec-20 13:31N 50°38' W 126°48'85 6.9
2014-Dec-20 01:03N 49°50' W 124°57'4 5.9
2014-Dec-20 00:22N 49°48' W 124°52'6 6.5
2014-Dec-19 23:28N 49°44' W 124°45'6 6.3
2014-Dec-19 22:33N 49°41' W 124°37'13 6.4
2014-Dec-19 20:33N 49°34' W 124°21'12 9.6
2014-Dec-19 19:16N 49°27' W 124°05'1710.1
2014-Dec-19 17:33N 49°17' W 123°43'1010.0
2014-Dec-19 16:33N 49°11' W 123°32'10 9.8
2014-Dec-19 15:33N 49°04' W 123°21'10 9.7
2014-Dec-19 14:33N 48°57' W 123°10'10 9.8
2014-Dec-19 13:33N 48°51' W 122°58'1010.0
2014-Dec-19 12:33N 48°45' W 122°46'9 9.5
2014-Dec-19 11:33N 48°36' W 122°45'10 9.6
2014-Dec-19 10:33N 48°26' W 122°44'10 9.5
2014-Dec-19 09:32N 48°17' W 122°47'9 6.2
2014-Dec-19 08:04N 48°08' W 122°42'3 6.1
2014-Dec-19 07:33N 48°06' W 122°39'8 8.3
2014-Dec-19 06:33N 47°58' W 122°34'9 8.7
2014-Dec-19 05:33N 47°51' W 122°27'10 9.8
2014-Dec-19 04:33N 47°41' W 122°27'7 6.7
2014-Dec-19 03:33N 47°35' W 122°21'0 0.2
2014-Dec-19 02:33N 47°35' W 122°21'0 0.0
2014-Dec-19 01:33N 47°35' W 122°21'0 0.0
2014-Dec-19 00:33N 47°35' W 122°21'6 5.9
2014-Dec-18 23:33N 47°41' W 122°25'2 2.1
2014-Dec-18 22:24N 47°39' W 122°22'0 0.0
2014-Dec-18 21:33N 47°39' W 122°22'  
2014-Dec-16 02:08N 47°40' W 122°24'2 3.9
2014-Dec-16 01:33N 47°38' W 122°26'4 4.4
2014-Dec-16 00:33N 47°35' W 122°21'5 5.3
2014-Dec-15 23:33N 47°38' W 122°28'10 9.8
2014-Dec-15 22:33N 47°48' W 122°28'9 8.7
2014-Dec-15 21:33N 47°56' W 122°32'10 8.3
2014-Dec-15 20:22N 48°04' W 122°40'9 8.9
2014-Dec-15 19:22N 48°12' W 122°48'10 9.8
2014-Dec-15 18:20N 48°21' W 122°46'7 9.2
2014-Dec-15 17:33N 48°29' W 122°44'8 8.3
2014-Dec-15 16:33N 48°37' W 122°45'8 8.4
2014-Dec-15 15:32N 48°45' W 122°48'9 9.6
2014-Dec-15 14:33N 48°50' W 123°00'9 9.4
2014-Dec-15 13:33N 48°56' W 123°11'1010.2
2014-Dec-15 12:33N 49°03' W 123°23'9 9.4
2014-Dec-15 11:33N 49°10' W 123°32'8 8.1
2014-Dec-15 10:33N 49°16' W 123°41'10 9.8
2014-Dec-15 09:33N 49°22' W 123°52'2010.0
2014-Dec-15 07:32N 49°33' W 124°18'13 9.3
2014-Dec-15 06:10N 49°39' W 124°35'93 8.0
2014-Dec-14 18:33N 50°31' W 126°37'8 7.7
2014-Dec-14 17:29N 50°37' W 126°46'8 7.6
2014-Dec-14 16:29N 50°41' W 126°55'8 7.7
2014-Dec-14 15:27N 50°45' W 127°06'6 6.9
2014-Dec-14 14:33N 50°49' W 127°14'8 7.7
2014-Dec-14 13:33N 50°54' W 127°23'9 9.0
2014-Dec-14 12:33N 50°59' W 127°35'8 8.0
2014-Dec-14 11:33N 51°05' W 127°43'8 7.7
2014-Dec-14 10:33N 51°11' W 127°51'18 8.9
2014-Dec-14 08:29N 51°29' W 127°51'  
2014-Dec-11 15:33N 58°18' W 135°46'8 7.6
2014-Dec-11 14:33N 58°16' W 135°59'  
Track history (hours):
 
Tides and Currents Weather Stations Pressure Air Temp Water Temp Dewpoint Dewpoint Depression Visibility Wind Speed Wind Dir Waves Ship Positions

Alaska Titan

Owner: WESTERN TOWBOAT CO, Seattle, WA. More information available from US FCC via Universal Licensing System and Coast Guard Vessel Documentation Center.

Last reported at 2014-Dec-20 18:33 UTC. Time now 2014-Dec-22 02:06 UTC.
Position N 51°09' W 127°50'.

Length 40 m; draft 6 m.

Type: Tow > 200 m length. MMSI: 367357890.

Date/timePositionNaut miles runAvg speedWind from/ knotsBaromVisibWave heightAir tempDewpointWater temp
2014-Dec-20 18:33N 51°09' W 127°50'10 9.9
2014-Dec-20 17:33N 51°02' W 127°38'10 9.5
2014-Dec-20 16:33N 50°56' W 127°27'1010.0
2014-Dec-20 15:31N 50°49' W 127°14'1110.2
2014-Dec-20 14:24N 50°43' W 126°60'910.3
2014-Dec-20 13:31N 50°38' W 126°48'85 6.9
2014-Dec-20 01:03N 49°50' W 124°57'4 5.9
2014-Dec-20 00:22N 49°48' W 124°52'6 6.5
2014-Dec-19 23:28N 49°44' W 124°45'6 6.3
2014-Dec-19 22:33N 49°41' W 124°37'13 6.4
2014-Dec-19 20:33N 49°34' W 124°21'12 9.6
2014-Dec-19 19:16N 49°27' W 124°05'1710.1
2014-Dec-19 17:33N 49°17' W 123°43'1010.0
2014-Dec-19 16:33N 49°11' W 123°32'10 9.8
2014-Dec-19 15:33N 49°04' W 123°21'10 9.7
2014-Dec-19 14:33N 48°57' W 123°10'10 9.8
2014-Dec-19 13:33N 48°51' W 122°58'1010.0
2014-Dec-19 12:33N 48°45' W 122°46'9 9.5
2014-Dec-19 11:33N 48°36' W 122°45'10 9.6
2014-Dec-19 10:33N 48°26' W 122°44'10 9.5
2014-Dec-19 09:32N 48°17' W 122°47'9 6.2
2014-Dec-19 08:04N 48°08' W 122°42'3 6.1
2014-Dec-19 07:33N 48°06' W 122°39'8 8.3
2014-Dec-19 06:33N 47°58' W 122°34'9 8.7
2014-Dec-19 05:33N 47°51' W 122°27'10 9.8
2014-Dec-19 04:33N 47°41' W 122°27'7 6.7
2014-Dec-19 03:33N 47°35' W 122°21'0 0.2
2014-Dec-19 02:33N 47°35' W 122°21'0 0.0
2014-Dec-19 01:33N 47°35' W 122°21'0 0.0
2014-Dec-19 00:33N 47°35' W 122°21'6 5.9
2014-Dec-18 23:33N 47°41' W 122°25'2 2.1
2014-Dec-18 22:24N 47°39' W 122°22'0 0.0
2014-Dec-18 21:33N 47°39' W 122°22'  
2014-Dec-16 02:08N 47°40' W 122°24'2 3.9
2014-Dec-16 01:33N 47°38' W 122°26'4 4.4
2014-Dec-16 00:33N 47°35' W 122°21'5 5.3
2014-Dec-15 23:33N 47°38' W 122°28'10 9.8
2014-Dec-15 22:33N 47°48' W 122°28'9 8.7
2014-Dec-15 21:33N 47°56' W 122°32'10 8.3
2014-Dec-15 20:22N 48°04' W 122°40'9 8.9
2014-Dec-15 19:22N 48°12' W 122°48'10 9.8
2014-Dec-15 18:20N 48°21' W 122°46'7 9.2
2014-Dec-15 17:33N 48°29' W 122°44'8 8.3
2014-Dec-15 16:33N 48°37' W 122°45'8 8.4
2014-Dec-15 15:32N 48°45' W 122°48'9 9.6
2014-Dec-15 14:33N 48°50' W 123°00'9 9.4
2014-Dec-15 13:33N 48°56' W 123°11'1010.2
2014-Dec-15 12:33N 49°03' W 123°23'9 9.4
2014-Dec-15 11:33N 49°10' W 123°32'8 8.1
2014-Dec-15 10:33N 49°16' W 123°41'10 9.8
2014-Dec-15 09:33N 49°22' W 123°52'2010.0
2014-Dec-15 07:32N 49°33' W 124°18'13 9.3
2014-Dec-15 06:10N 49°39' W 124°35'93 8.0
2014-Dec-14 18:33N 50°31' W 126°37'8 7.7
2014-Dec-14 17:29N 50°37' W 126°46'8 7.6
2014-Dec-14 16:29N 50°41' W 126°55'8 7.7
2014-Dec-14 15:27N 50°45' W 127°06'6 6.9
2014-Dec-14 14:33N 50°49' W 127°14'8 7.7
2014-Dec-14 13:33N 50°54' W 127°23'9 9.0
2014-Dec-14 12:33N 50°59' W 127°35'8 8.0
2014-Dec-14 11:33N 51°05' W 127°43'8 7.7
2014-Dec-14 10:33N 51°11' W 127°51'18 8.9
2014-Dec-14 08:29N 51°29' W 127°51'  
2014-Dec-11 15:33N 58°18' W 135°46'8 7.6
2014-Dec-11 14:33N 58°16' W 135°59'  

Dump ship's entire track history